Accueil
METAR-TAF:

METAR-TAF

Aéroports :

Golden Triangle Regional Airport

Columbus / West Point / Starkville, Mississippi, États-Unis

latitude: 33-27N, longitude: 088-35W, altitude: 80 m

Observation

Le bulletin a été fait il y a 20 minutes, à 10:56 UTC
Vent 6 kt de nord/nord-ouest
Température 13°C
Humidité 94%
Pression 1016 hPa
Visibilité: 16.1 km
Ciel clair

METAR: KGTR 041056Z 34006KT 10SM CLR 13/12 A3001 RMK AO2 SLP169 T01330117

Heure: 06:16 (11:16 UTC)

Prévision

Le bulletin a été fait il y a 5 heures et 36 minutes, à 05:40 UTC
Prévision valable du 04 à 06 UTC au 05 à 06 UTC
Vent 3 kt de nord/nord-ouest
Visibilité: 10 km
Nuages fragmentés à une hauteur de 10000 ft

TAF: KGTR 040540Z 0406/0506 34003KT P6SM BKN100

Observations et prévisions météorologiques de plus de 4000 aéroports (messages METAR et TAF).

Les stations disponibles sont représentées par des disques jaunes et rouges sur la carte.

Passer la souris dessus pour voir le nom de la station.

Cliquer dessus pour voir les observations et prévisions météorologiques.

Pour changer de carte: cliquez sur les boutons verts avec une croix noire pour zoomer, sur le bouton vert avec un tiret pour effectuer un zoom arrière, ou sur les flèches vertes pour les cartes adjacentes.


METAR-TAF: